Time;durP1;ratioP1;P1;durP2;ratioP2;P2;SDS_P1;SDS_P2;PMS_P1;PMS_P2;Temp;Humidity;BMP_temperature;BMP_pressure;BME280_temperature;BME280_humidity;BME280_pressure;Samples;Min_cycle;Max_cycle;Signal;HPM_P1;HPM_P2
2021/12/25 00:02:15;;;;;;;1.85;0.30;;;13.10;55.50;;;;;;5087663;28;20042;-73
2021/12/25 00:04:41;;;;;;;5.30;0.60;;;13.00;55.60;;;;;;5075934;28;20045;-72
2021/12/25 00:07:07;;;;;;;1.55;0.47;;;13.00;55.30;;;;;;5076003;28;20059;-73
2021/12/25 00:09:32;;;;;;;3.40;0.50;;;12.90;55.30;;;;;;5076125;28;20044;-72
2021/12/25 00:11:58;;;;;;;1.80;0.50;;;12.90;55.30;;;;;;5075771;28;20051;-73
2021/12/25 00:14:24;;;;;;;3.42;0.60;;;12.80;55.20;;;;;;5058757;28;20444;-72
2021/12/25 00:16:49;;;;;;;2.53;0.35;;;12.80;55.30;;;;;;5075676;28;20090;-72
2021/12/25 00:19:15;;;;;;;2.05;0.77;;;12.70;55.20;;;;;;5076017;28;20041;-72
2021/12/25 00:21:41;;;;;;;2.13;0.40;;;12.80;55.30;;;;;;5076188;28;20422;-73
2021/12/25 00:24:07;;;;;;;2.55;0.30;;;12.70;55.10;;;;;;5075919;28;20082;-72
2021/12/25 00:26:46;;;;;;;1.58;0.43;;;12.70;55.00;;;;;;5090895;28;20044;-72
2021/12/25 00:34:33;;;;;;;3.97;0.63;;;12.50;54.80;;;;;;5095902;28;20048;-72
2021/12/25 00:36:58;;;;;;;1.42;0.30;;;12.60;54.90;;;;;;5095827;28;20124;-72
2021/12/25 00:39:28;;;;;;;3.67;0.50;;;12.50;54.60;;;;;;5095621;28;20044;-72
2021/12/25 00:41:54;;;;;;;4.60;0.50;;;12.40;54.60;;;;;;5095520;28;20044;-72
2021/12/25 00:44:19;;;;;;;4.40;0.70;;;12.40;54.80;;;;;;5095625;28;20058;-72
2021/12/25 00:46:45;;;;;;;4.00;0.70;;;12.40;54.80;;;;;;5095576;28;20078;-72
2021/12/25 00:49:11;;;;;;;2.45;0.30;;;12.50;54.70;;;;;;5095410;28;20552;-72
2021/12/25 00:51:36;;;;;;;1.67;0.70;;;12.50;54.60;;;;;;5080957;28;20340;-72
2021/12/25 00:54:02;;;;;;;2.03;0.50;;;12.40;54.20;;;;;;5074946;28;20102;-72
2021/12/25 00:56:28;;;;;;;2.42;0.90;;;12.40;54.50;;;;;;5075702;28;20049;-72
2021/12/25 00:58:53;;;;;;;2.95;0.80;;;12.40;54.30;;;;;;5075325;28;20379;-73
2021/12/25 01:01:19;;;;;;;3.17;0.40;;;12.40;54.20;;;;;;5075347;28;20394;-72
2021/12/25 01:03:46;;;;;;;4.88;0.65;;;12.30;54.10;;;;;;5075116;28;20049;-72
2021/12/25 01:06:11;;;;;;;3.25;0.63;;;12.30;54.20;;;;;;5075248;28;20059;-72
2021/12/25 01:08:37;;;;;;;2.20;0.50;;;12.30;54.00;;;;;;5074998;28;20052;-72
2021/12/25 01:11:03;;;;;;;5.85;0.70;;;12.40;53.90;;;;;;5074709;28;20376;-72
2021/12/25 01:13:33;;;;;;;1.65;0.35;;;12.30;53.50;;;;;;5075046;28;20448;-72
2021/12/25 01:24:09;;;;;;;1.25;0.30;;;12.20;53.10;;;;;;5094883;28;20136;-73
2021/12/25 01:37:36;;;;;;;2.17;0.60;;;12.20;52.60;;;;;;5095632;28;20382;-72
2021/12/25 01:50:03;;;;;;;1.85;0.30;;;11.90;52.40;;;;;;5074778;28;20048;-73
2021/12/25 01:52:30;;;;;;;3.47;0.50;;;11.80;52.30;;;;;;5074356;28;20064;-72
2021/12/25 01:55:04;;;;;;;2.25;0.45;;;11.80;52.00;;;;;;5075031;28;20046;-72
2021/12/25 01:57:31;;;;;;;3.22;0.80;;;11.70;52.40;;;;;;5075306;28;20129;-72
2021/12/25 01:59:58;;;;;;;2.72;0.40;;;11.70;52.30;;;;;;5074836;28;20044;-73
2021/12/25 02:02:25;;;;;;;2.45;0.40;;;11.70;52.40;;;;;;5079173;28;20056;-72
2021/12/25 02:04:52;;;;;;;2.35;0.47;;;11.70;52.10;;;;;;5074305;28;20052;-72
2021/12/25 02:07:19;;;;;;;2.53;0.57;;;11.70;52.40;;;;;;5075126;28;20041;-72
2021/12/25 02:09:45;;;;;;;4.07;0.60;;;11.70;52.00;;;;;;5057129;28;20044;-72
2021/12/25 02:12:11;;;;;;;2.60;0.30;;;11.60;51.80;;;;;;5074598;28;20092;-73
2021/12/25 02:14:38;;;;;;;1.38;0.50;;;11.60;52.10;;;;;;5074657;28;20467;-72
2021/12/25 02:17:23;;;;;;;7.90;0.88;;;11.60;52.00;;;;;;5074323;28;20357;-72
2021/12/25 02:20:08;;;;;;;1.27;0.40;;;11.50;51.80;;;;;;5074723;28;20044;-72
2021/12/25 02:22:34;;;;;;;1.42;0.20;;;11.50;51.80;;;;;;5073968;28;20048;-72
2021/12/25 02:25:00;;;;;;;3.40;0.73;;;11.60;52.10;;;;;;5077957;28;20052;-73
2021/12/25 02:27:25;;;;;;;1.63;0.35;;;11.60;51.80;;;;;;5077971;28;20040;-72
2021/12/25 02:29:51;;;;;;;1.10;0.50;;;11.50;51.70;;;;;;5077626;28;20045;-73
2021/12/25 02:32:17;;;;;;;1.42;0.30;;;11.50;51.60;;;;;;5059990;28;20045;-73
2021/12/25 02:34:43;;;;;;;2.38;0.30;;;11.50;51.50;;;;;;5077712;28;20097;-72
2021/12/25 02:37:09;;;;;;;1.05;0.50;;;11.50;51.40;;;;;;5078021;28;20041;-71
2021/12/25 02:39:35;;;;;;;1.05;0.30;;;11.40;51.30;;;;;;5077741;28;20336;-72
2021/12/25 02:42:01;;;;;;;1.42;0.30;;;11.40;51.30;;;;;;5077759;28;20044;-72
2021/12/25 02:44:27;;;;;;;3.13;0.57;;;11.30;51.20;;;;;;5077387;28;20458;-73
2021/12/25 02:46:55;;;;;;;1.67;0.40;;;11.20;51.20;;;;;;5077185;28;20092;-72
2021/12/25 02:49:23;;;;;;;1.75;0.38;;;11.20;51.30;;;;;;5077431;28;20060;-73
2021/12/25 02:51:51;;;;;;;2.85;0.40;;;11.20;51.40;;;;;;5077565;28;20063;-72
2021/12/25 02:54:17;;;;;;;1.38;0.38;;;11.20;51.30;;;;;;5093165;28;20419;-74
2021/12/25 02:56:43;;;;;;;2.03;0.30;;;11.10;51.30;;;;;;5097515;28;20090;-73
2021/12/25 02:59:15;;;;;;;1.25;0.30;;;11.10;51.00;;;;;;5097148;28;20359;-72
2021/12/25 03:01:41;;;;;;;1.65;0.40;;;11.10;50.90;;;;;;5097644;28;20408;-72
2021/12/25 03:04:07;;;;;;;2.40;0.20;;;11.00;50.90;;;;;;5097431;28;20192;-72
2021/12/25 03:06:37;;;;;;;1.45;0.40;;;11.10;51.00;;;;;;5097970;28;20386;-72
2021/12/25 03:09:05;;;;;;;1.75;0.50;;;11.00;50.00;;;;;;5097164;28;20116;-72
2021/12/25 03:11:32;;;;;;;1.42;0.17;;;11.00;50.20;;;;;;5097119;28;20044;-72
2021/12/25 03:14:10;;;;;;;1.98;0.30;;;11.00;50.40;;;;;;5097334;28;20044;-73
2021/12/25 03:16:36;;;;;;;1.55;0.22;;;11.00;50.40;;;;;;5097491;28;20378;-72
2021/12/25 03:19:04;;;;;;;0.35;0.20;;;11.00;50.00;;;;;;5097327;28;20040;-74
2021/12/25 03:21:30;;;;;;;2.05;0.55;;;10.90;49.80;;;;;;5097155;28;20043;-73
2021/12/25 03:23:56;;;;;;;1.30;0.43;;;10.90;50.00;;;;;;5083695;28;20478;-74
2021/12/25 03:26:22;;;;;;;1.05;0.20;;;10.90;50.10;;;;;;5077176;28;20328;-73
2021/12/25 03:28:51;;;;;;;2.50;0.35;;;10.90;50.10;;;;;;5076640;28;20058;-73
2021/12/25 03:31:20;;;;;;;3.30;0.40;;;10.80;50.00;;;;;;5076811;28;20057;-72
2021/12/25 03:33:50;;;;;;;2.05;0.30;;;10.80;49.40;;;;;;5076353;28;20063;-72
2021/12/25 03:36:16;;;;;;;2.20;0.30;;;10.80;49.90;;;;;;5076785;28;20048;-72
2021/12/25 03:38:43;;;;;;;0.88;0.13;;;10.80;49.50;;;;;;5076573;28;20067;-73
2021/12/25 03:41:10;;;;;;;1.65;0.30;;;10.80;49.60;;;;;;5076462;28;20451;-71
2021/12/25 03:43:39;;;;;;;0.70;0.20;;;10.80;49.70;;;;;;5076437;28;20048;-72
2021/12/25 03:46:06;;;;;;;0.93;0.32;;;10.70;49.50;;;;;;5076084;28;20452;-72
2021/12/25 03:59:05;;;;;;;0.98;0.20;;;10.60;48.80;;;;;;5096179;28;20048;-71
2021/12/25 04:04:09;;;;;;;1.33;0.25;;;10.60;48.50;;;;;;5075846;28;20052;-73
2021/12/25 04:06:44;;;;;;;1.05;0.10;;;10.50;48.50;;;;;;5058551;28;20128;-72
2021/12/25 04:09:20;;;;;;;0.75;0.10;;;10.40;48.60;;;;;;5075784;28;20118;-72
2021/12/25 04:11:46;;;;;;;2.10;0.20;;;10.40;48.70;;;;;;5075990;28;20055;-72
2021/12/25 04:14:12;;;;;;;1.65;0.20;;;10.40;48.80;;;;;;5075745;28;20123;-72
2021/12/25 04:16:37;;;;;;;0.98;0.30;;;10.50;48.80;;;;;;5075354;28;20119;-73
2021/12/25 04:19:03;;;;;;;0.38;0.17;;;10.40;48.50;;;;;;5058458;28;20091;-72
2021/12/25 04:21:29;;;;;;;1.25;0.10;;;10.30;48.70;;;;;;5075628;28;20196;-72
2021/12/25 04:23:55;;;;;;;1.15;0.30;;;10.30;48.60;;;;;;5075926;28;20048;-72
2021/12/25 04:26:23;;;;;;;2.00;0.40;;;10.20;48.50;;;;;;5075742;28;20040;-72
2021/12/25 04:31:59;;;;;;;1.90;0.10;;;10.20;48.60;;;;;;5075355;28;20052;-72
2021/12/25 04:48:40;;;;;;;1.15;0.13;;;10.20;47.90;;;;;;5074809;28;20056;-73
2021/12/25 05:04:13;;;;;;;1.80;0.30;;;10.90;44.60;;;;;;5094642;28;20047;-72
2021/12/25 05:06:39;;;;;;;3.88;0.50;;;11.00;45.20;;;;;;5095468;28;20355;-74
2021/12/25 05:09:05;;;;;;;3.33;0.30;;;11.30;45.50;;;;;;5095141;28;20036;-74
2021/12/25 05:11:30;;;;;;;4.47;0.60;;;11.60;45.90;;;;;;5095102;28;20156;-72
2021/12/25 05:13:56;;;;;;;9.90;1.40;;;12.00;46.20;;;;;;5095175;28;20058;-72
2021/12/25 05:16:22;;;;;;;5.13;1.13;;;12.30;46.50;;;;;;5077294;28;20439;-74
2021/12/25 05:18:50;;;;;;;5.60;0.65;;;12.60;47.20;;;;;;5094882;28;20044;-74
2021/12/25 05:21:18;;;;;;;12.80;1.42;;;12.90;47.30;;;;;;5095483;28;20087;-74
2021/12/25 05:23:44;;;;;;;5.22;0.70;;;13.20;48.10;;;;;;5094942;28;20489;-73
2021/12/25 05:26:09;;;;;;;12.88;1.13;;;13.50;48.60;;;;;;5095368;28;20044;-73
2021/12/25 05:28:40;;;;;;;7.35;0.90;;;13.50;48.90;;;;;;5095246;28;20438;-74
2021/12/25 05:31:11;;;;;;;6.72;0.90;;;13.70;49.20;;;;;;5094052;28;20128;-74
2021/12/25 05:33:37;;;;;;;2.17;0.30;;;13.80;47.80;;;;;;5074628;28;20048;-74
2021/12/25 05:36:04;;;;;;;4.85;0.47;;;12.20;46.10;;;;;;5074796;28;20051;-74
2021/12/25 05:38:30;;;;;;;5.93;0.70;;;11.50;48.70;;;;;;5074834;28;20040;-74
2021/12/25 05:40:56;;;;;;;3.60;0.50;;;11.80;53.50;;;;;;5075288;28;20416;-74
2021/12/25 05:43:22;;;;;;;3.35;0.38;;;12.30;48.00;;;;;;5074738;28;20120;-74
2021/12/25 05:45:48;;;;;;;8.10;0.77;;;11.30;49.10;;;;;;5073885;28;20041;-74
2021/12/25 05:48:14;;;;;;;5.15;0.57;;;11.50;53.90;;;;;;5074265;28;20048;-77
2021/12/25 05:50:39;;;;;;;9.68;1.15;;;12.30;53.60;;;;;;5074393;28;20040;-74
2021/12/25 05:53:06;;;;;;;8.63;0.43;;;13.10;52.60;;;;;;5074646;28;20059;-75
2021/12/25 05:55:33;;;;;;;12.38;1.33;;;13.60;51.70;;;;;;5074776;28;20480;-74
2021/12/25 05:58:00;;;;;;;3.65;0.50;;;14.00;51.10;;;;;;5076585;28;20040;-74
2021/12/25 06:00:26;;;;;;;3.55;0.60;;;14.40;50.90;;;;;;5079004;28;20063;-75
2021/12/25 06:02:52;;;;;;;3.97;0.50;;;13.50;50.20;;;;;;5096450;28;20035;-72
2021/12/25 06:05:33;;;;;;;6.53;0.63;;;14.10;50.90;;;;;;5097408;28;20363;-80
2021/12/25 06:08:00;;;;;;;2.25;0.60;;;14.50;50.70;;;;;;5050323;28;20045;-74
2021/12/25 06:10:26;;;;;;;8.93;0.90;;;14.80;50.00;;;;;;5078218;28;20137;-75
2021/12/25 06:12:55;;;;;;;5.28;0.77;;;15.10;49.70;;;;;;5078095;28;20083;-75
2021/12/25 06:15:21;;;;;;;4.03;0.43;;;15.20;49.50;;;;;;5082410;28;20048;-75
2021/12/25 06:17:47;;;;;;;6.60;0.65;;;15.30;49.00;;;;;;5089699;28;20044;-75
2021/12/25 06:20:13;;;;;;;3.17;0.47;;;15.40;49.20;;;;;;5094079;28;20054;-75
2021/12/25 06:22:39;;;;;;;3.10;0.40;;;15.50;49.00;;;;;;5089607;28;20059;-79
2021/12/25 06:25:06;;;;;;;3.42;0.40;;;15.60;49.00;;;;;;5091525;28;20052;-74
2021/12/25 06:27:32;;;;;;;2.45;0.63;;;15.60;47.80;;;;;;5097468;28;20036;-76
2021/12/25 06:29:58;;;;;;;6.72;0.60;;;15.50;48.90;;;;;;5077662;28;20036;-72
2021/12/25 06:32:24;;;;;;;9.05;1.00;;;15.60;49.20;;;;;;5077671;28;20116;-75
2021/12/25 06:34:49;;;;;;;3.95;0.47;;;15.60;49.30;;;;;;5077830;28;20091;-73
2021/12/25 06:37:17;;;;;;;7.85;0.75;;;15.70;49.40;;;;;;5078525;28;20076;-75
2021/12/25 06:39:42;;;;;;;6.93;0.63;;;15.70;49.50;;;;;;5078483;28;20040;-73
2021/12/25 06:42:09;;;;;;;6.78;1.60;;;15.80;49.30;;;;;;5078320;28;20426;-73
2021/12/25 06:44:35;;;;;;;4.30;0.68;;;15.90;50.40;;;;;;5077184;28;20515;-73
2021/12/25 06:47:02;;;;;;;5.15;0.60;;;15.90;50.40;;;;;;5077400;28;20060;-73
2021/12/25 06:49:28;;;;;;;8.38;0.73;;;16.00;50.60;;;;;;5077179;28;20118;-74
2021/12/25 06:51:54;;;;;;;4.65;0.52;;;16.00;50.80;;;;;;5077751;28;20056;-73
2021/12/25 06:54:20;;;;;;;5.53;0.50;;;16.00;50.80;;;;;;5077615;28;20071;-73
2021/12/25 06:56:47;;;;;;;3.88;0.80;;;16.00;50.70;;;;;;5077373;28;20432;-75
2021/12/25 06:59:14;;;;;;;4.53;0.50;;;16.00;51.30;;;;;;5079617;28;20109;-71
2021/12/25 07:01:40;;;;;;;5.72;0.63;;;16.10;51.50;;;;;;5060169;28;20052;-77
2021/12/25 07:04:07;;;;;;;3.75;0.50;;;16.10;51.80;;;;;;5059716;28;20056;-73
2021/12/25 07:06:36;;;;;;;8.07;1.08;;;16.10;51.20;;;;;;5077312;28;20045;-73
2021/12/25 07:09:05;;;;;;;7.88;0.60;;;15.60;42.30;;;;;;5076064;28;20127;-74
2021/12/25 07:11:31;;;;;;;6.35;0.60;;;14.50;51.40;;;;;;5077831;28;20149;-77
2021/12/25 07:14:00;;;;;;;8.00;0.98;;;15.10;53.70;;;;;;5088178;28;20052;-72
2021/12/25 07:16:26;;;;;;;12.68;1.73;;;15.40;53.50;;;;;;5077252;28;20060;-73
2021/12/25 07:18:52;;;;;;;13.98;1.52;;;15.60;53.30;;;;;;5077189;28;20348;-72
2021/12/25 07:21:17;;;;;;;10.55;1.55;;;15.80;52.90;;;;;;5077063;28;20056;-72
2021/12/25 07:23:43;;;;;;;11.98;1.30;;;16.00;53.00;;;;;;5077025;28;20466;-73
2021/12/25 07:26:09;;;;;;;7.18;0.93;;;16.10;52.50;;;;;;5076444;28;20131;-77
2021/12/25 07:28:35;;;;;;;11.60;0.77;;;16.10;52.60;;;;;;5077116;28;20044;-76
2021/12/25 07:31:01;;;;;;;6.88;1.23;;;16.20;52.70;;;;;;5076473;28;20044;-77
2021/12/25 07:33:29;;;;;;;5.15;0.52;;;16.30;52.40;;;;;;5076783;28;20041;-76
2021/12/25 07:35:56;;;;;;;10.43;1.25;;;16.30;52.00;;;;;;5076910;28;20071;-73
2021/12/25 07:38:22;;;;;;;7.90;0.80;;;16.40;52.80;;;;;;5076667;28;20083;-74
2021/12/25 07:40:48;;;;;;;6.13;0.60;;;16.40;52.80;;;;;;5076287;28;20048;-73
2021/12/25 07:43:14;;;;;;;9.68;0.90;;;16.50;52.70;;;;;;5078684;28;20445;-74
2021/12/25 07:45:41;;;;;;;7.18;0.70;;;16.50;52.60;;;;;;5096686;28;20077;-73
2021/12/25 07:48:06;;;;;;;9.18;0.60;;;16.50;52.50;;;;;;5096400;28;20447;-73
2021/12/25 07:50:36;;;;;;;8.35;0.95;;;16.60;52.50;;;;;;5096571;28;20044;-73
2021/12/25 07:53:02;;;;;;;7.47;0.93;;;16.60;52.00;;;;;;5086251;28;20051;-74
2021/12/25 07:55:30;;;;;;;4.35;0.50;;;16.60;50.40;;;;;;5075698;28;20044;-74
2021/12/25 07:57:57;;;;;;;8.70;0.85;;;16.60;50.00;;;;;;5080167;28;20067;-74
2021/12/25 08:00:23;;;;;;;8.52;0.65;;;16.60;49.10;;;;;;5096014;28;20447;-70
2021/12/25 08:02:48;;;;;;;5.10;0.95;;;16.70;48.90;;;;;;5082790;28;20456;-73
2021/12/25 08:05:14;;;;;;;9.07;1.90;;;16.70;47.80;;;;;;5075714;28;20080;-73
2021/12/25 08:07:40;;;;;;;10.82;1.38;;;16.80;47.00;;;;;;5075636;28;20094;-73
2021/12/25 08:10:13;;;;;;;9.45;0.98;;;16.70;47.40;;;;;;5075815;28;20359;-74
2021/12/25 08:12:59;;;;;;;3.65;0.98;;;16.80;45.70;;;;;;5079016;28;20481;-73
2021/12/25 08:15:27;;;;;;;14.70;1.30;;;16.80;43.80;;;;;;5096310;28;20055;-73
2021/12/25 08:17:54;;;;;;;13.10;1.45;;;16.80;44.60;;;;;;5096263;28;20062;-72
2021/12/25 08:20:20;;;;;;;8.60;0.80;;;16.90;45.10;;;;;;5093323;28;20110;-72
2021/12/25 08:22:46;;;;;;;13.13;1.55;;;16.80;45.50;;;;;;5075691;28;20056;-72
2021/12/25 08:25:14;;;;;;;6.65;1.25;;;16.90;46.30;;;;;;5075461;28;20468;-74
2021/12/25 08:27:41;;;;;;;9.60;1.27;;;16.90;46.80;;;;;;5076450;28;20049;-73
2021/12/25 08:30:10;;;;;;;7.28;1.05;;;16.90;46.50;;;;;;5075475;28;20048;-72
2021/12/25 08:32:40;;;;;;;6.95;0.93;;;16.90;46.30;;;;;;5081236;28;20055;-72
2021/12/25 08:35:08;;;;;;;6.07;0.88;;;16.90;44.90;;;;;;5095704;28;20159;-71
2021/12/25 08:37:34;;;;;;;6.78;0.50;;;16.90;42.90;;;;;;5096085;28;20055;-72
2021/12/25 08:40:00;;;;;;;7.10;0.55;;;16.80;43.40;;;;;;5095686;28;20043;-72
2021/12/25 08:42:26;;;;;;;10.50;0.90;;;16.80;43.40;;;;;;5096026;28;20039;-72
2021/12/25 08:45:04;;;;;;;9.93;0.80;;;16.80;43.90;;;;;;5095787;28;20463;-73
2021/12/25 08:47:34;;;;;;;17.35;1.85;;;16.80;44.30;;;;;;5095292;28;20060;-74
2021/12/25 08:50:00;;;;;;;11.30;1.20;;;16.90;44.70;;;;;;5095550;28;20082;-75
2021/12/25 08:52:27;;;;;;;12.88;1.15;;;16.90;42.50;;;;;;5095330;28;20052;-76
2021/12/25 08:54:53;;;;;;;12.30;1.13;;;16.90;39.90;;;;;;5078076;28;20131;-72
2021/12/25 08:57:21;;;;;;;10.77;1.35;;;16.90;39.70;;;;;;5094860;28;20055;-72
2021/12/25 08:59:51;;;;;;;20.88;2.22;;;16.90;40.40;;;;;;5095525;28;20087;-72
2021/12/25 09:02:18;;;;;;;13.77;1.38;;;16.90;41.30;;;;;;5089740;28;20517;-72
2021/12/25 09:04:46;;;;;;;8.98;1.00;;;16.40;43.20;;;;;;5075200;28;20052;-72
2021/12/25 09:07:12;;;;;;;7.60;1.00;;;16.60;43.20;;;;;;5075275;28;20041;-72
2021/12/25 09:09:39;;;;;;;7.03;0.80;;;16.80;43.40;;;;;;5075001;28;20045;-72
2021/12/25 09:12:06;;;;;;;11.32;1.38;;;16.90;43.70;;;;;;5074983;28;20044;-72
2021/12/25 09:14:32;;;;;;;8.40;0.90;;;17.00;43.80;;;;;;5076927;28;20123;-73
2021/12/25 09:16:58;;;;;;;13.20;1.27;;;17.00;44.20;;;;;;5095288;28;20123;-73
2021/12/25 09:19:24;;;;;;;11.90;1.70;;;16.80;44.70;;;;;;5095063;28;20530;-73
2021/12/25 09:21:49;;;;;;;7.78;0.77;;;16.80;44.70;;;;;;5094996;28;20040;-74
2021/12/25 09:24:16;;;;;;;11.27;1.48;;;16.80;45.20;;;;;;5082875;28;20032;-74
2021/12/25 09:26:42;;;;;;;13.95;1.70;;;15.70;41.90;;;;;;5075727;28;20052;-74
2021/12/25 09:29:08;;;;;;;32.03;3.20;;;15.10;47.90;;;;;;5074650;28;20052;-74
2021/12/25 09:31:34;;;;;;;28.55;2.75;;;15.50;46.10;;;;;;5074656;28;20135;-74
2021/12/25 09:33:59;;;;;;;27.00;3.53;;;15.70;45.40;;;;;;5078419;28;20359;-74
2021/12/25 09:36:26;;;;;;;16.42;3.05;;;15.90;45.40;;;;;;5078944;28;20058;-73
2021/12/25 09:38:52;;;;;;;30.10;4.45;;;16.10;45.00;;;;;;5079109;28;20124;-74
2021/12/25 09:41:18;;;;;;;36.22;3.78;;;16.30;46.40;;;;;;5078675;28;20148;-74
2021/12/25 09:43:47;;;;;;;19.95;3.10;;;16.50;46.40;;;;;;5079088;28;20135;-76
2021/12/25 09:46:13;;;;;;;23.50;3.58;;;16.50;45.40;;;;;;5078339;28;20133;-73
2021/12/25 09:48:39;;;;;;;26.00;3.10;;;16.60;45.40;;;;;;5078912;28;20053;-73
2021/12/25 09:51:05;;;;;;;23.90;2.70;;;16.60;45.80;;;;;;5078829;28;20067;-74
2021/12/25 09:53:32;;;;;;;14.23;2.35;;;16.70;46.10;;;;;;5088743;28;20040;-73
2021/12/25 09:55:58;;;;;;;17.08;2.25;;;16.80;46.30;;;;;;5071434;28;20041;-72
2021/12/25 09:58:24;;;;;;;14.70;1.75;;;16.90;46.50;;;;;;5077957;28;20455;-74
2021/12/25 10:00:52;;;;;;;13.73;2.13;;;17.00;46.50;;;;;;5078264;28;20050;-73
2021/12/25 10:03:20;;;;;;;19.38;2.25;;;17.00;46.50;;;;;;5078153;28;20056;-78
2021/12/25 10:05:49;;;;;;;16.85;1.92;;;17.10;46.70;;;;;;5080280;28;20127;-80
2021/12/25 10:08:20;;;;;;;24.45;2.00;;;17.10;46.80;;;;;;5060532;28;20037;-74
2021/12/25 10:10:54;;;;;;;22.00;2.83;;;17.10;47.00;;;;;;5078113;28;20379;-70
2021/12/25 10:13:29;;;;;;;15.35;2.05;;;16.90;46.00;;;;;;5077998;28;20048;-78
2021/12/25 10:16:17;;;;;;;13.73;2.08;;;16.90;45.20;;;;;;5078059;28;20036;-74
2021/12/25 10:18:43;;;;;;;10.80;1.48;;;16.80;45.00;;;;;;5078089;28;20040;-73
2021/12/25 10:21:36;;;;;;;11.50;1.38;;;16.80;45.10;;;;;;5060266;28;20048;-73
2021/12/25 10:24:06;;;;;;;13.52;1.60;;;16.70;45.00;;;;;;5059025;28;20052;-72
2021/12/25 10:26:36;;;;;;;15.05;1.42;;;16.60;45.40;;;;;;5077927;28;20056;-73
2021/12/25 10:29:21;;;;;;;12.70;1.40;;;16.50;45.60;;;;;;5078070;28;20049;-75
2021/12/25 10:31:49;;;;;;;11.23;1.05;;;16.40;45.70;;;;;;5078622;28;20420;-74
2021/12/25 10:34:24;;;;;;;8.98;1.10;;;16.30;45.90;;;;;;5077703;28;20052;-73
2021/12/25 10:36:51;;;;;;;7.32;0.73;;;16.30;46.10;;;;;;5077830;28;20514;-73
2021/12/25 10:39:21;;;;;;;6.00;0.98;;;16.20;46.30;;;;;;5081164;28;20047;-73
2021/12/25 10:41:58;;;;;;;7.00;1.08;;;16.10;46.30;;;;;;5097515;28;20132;-72
2021/12/25 10:44:51;;;;;;;6.45;0.80;;;16.00;46.40;;;;;;5096819;28;20519;-73
2021/12/25 10:47:27;;;;;;;3.67;0.90;;;15.90;46.40;;;;;;5097951;28;20100;-75
2021/12/25 10:49:56;;;;;;;5.32;0.93;;;15.90;46.80;;;;;;5097944;28;20083;-73
2021/12/25 10:52:27;;;;;;;7.22;0.70;;;15.80;46.80;;;;;;5097835;28;20048;-75
2021/12/25 10:54:56;;;;;;;7.07;0.70;;;15.70;46.90;;;;;;5080190;28;20067;-73
2021/12/25 10:57:41;;;;;;;2.75;0.57;;;15.60;47.00;;;;;;5097539;28;20044;-73
2021/12/25 11:00:14;;;;;;;4.43;0.60;;;15.60;47.10;;;;;;5097498;28;20052;-74
2021/12/25 11:02:46;;;;;;;4.45;0.50;;;15.50;47.30;;;;;;5097547;28;20513;-73
2021/12/25 11:05:15;;;;;;;4.25;0.60;;;15.50;47.50;;;;;;5097354;28;20040;-74
2021/12/25 11:07:42;;;;;;;3.38;0.40;;;15.40;47.50;;;;;;5097956;28;20121;-73
2021/12/25 11:10:11;;;;;;;5.63;0.93;;;15.30;47.70;;;;;;5086702;28;20041;-73
2021/12/25 11:12:37;;;;;;;2.35;0.63;;;15.30;48.40;;;;;;5077152;28;20063;-73
2021/12/25 11:15:22;;;;;;;3.60;0.50;;;15.20;47.90;;;;;;5077344;28;20128;-73
2021/12/25 11:17:53;;;;;;;3.72;0.57;;;15.10;47.90;;;;;;5076536;28;20090;-73
2021/12/25 11:20:34;;;;;;;1.55;0.40;;;15.10;48.20;;;;;;5076987;28;20048;-73
2021/12/25 11:23:02;;;;;;;2.35;0.40;;;15.10;48.20;;;;;;5076944;28;20118;-74
2021/12/25 11:25:30;;;;;;;1.73;0.30;;;15.00;48.40;;;;;;5077044;28;20055;-73
2021/12/25 11:27:58;;;;;;;2.08;0.20;;;15.00;48.50;;;;;;5077480;28;20121;-73
2021/12/25 11:30:29;;;;;;;2.28;0.30;;;15.00;48.60;;;;;;5077118;28;20250;-72
2021/12/25 11:32:56;;;;;;;2.67;0.55;;;15.00;48.70;;;;;;5077108;28;20127;-73
2021/12/25 11:35:22;;;;;;;1.83;0.43;;;14.90;48.70;;;;;;5076722;28;20044;-72
2021/12/25 11:37:49;;;;;;;2.58;0.60;;;14.90;48.90;;;;;;5076676;28;20052;-73
2021/12/25 11:40:18;;;;;;;3.22;0.32;;;14.90;48.90;;;;;;5090170;28;20044;-74
2021/12/25 11:42:48;;;;;;;3.22;0.45;;;14.90;49.00;;;;;;5096308;28;20150;-73
2021/12/25 11:45:26;;;;;;;0.95;0.32;;;14.80;48.90;;;;;;5079545;28;20447;-73
2021/12/25 11:47:54;;;;;;;3.90;0.50;;;14.80;48.90;;;;;;5096482;28;20063;-73
2021/12/25 11:50:42;;;;;;;1.95;0.30;;;14.80;49.60;;;;;;5096685;28;20097;-73
2021/12/25 11:53:24;;;;;;;1.60;0.30;;;14.80;48.90;;;;;;5096191;28;20048;-73
2021/12/25 11:58:42;;;;;;;2.50;0.82;;;14.70;49.00;;;;;;5063026;28;20405;-73
2021/12/25 12:01:38;;;;;;;2.45;0.22;;;14.70;49.00;;;;;;5096515;28;20123;-73
2021/12/25 12:04:09;;;;;;;2.97;0.30;;;14.60;49.00;;;;;;5076174;28;20078;-74
2021/12/25 12:06:45;;;;;;;1.85;0.20;;;14.60;49.10;;;;;;5076188;28;20048;-74
2021/12/25 12:09:15;;;;;;;1.55;0.47;;;14.60;49.10;;;;;;5076078;28;20048;-74
2021/12/25 12:11:45;;;;;;;2.60;0.50;;;14.50;49.10;;;;;;5075934;28;20372;-73
2021/12/25 12:14:13;;;;;;;0.93;0.15;;;14.50;49.00;;;;;;5075966;28;20051;-72
2021/12/25 12:16:50;;;;;;;0.98;0.28;;;14.50;49.00;;;;;;5076249;28;20040;-73
2021/12/25 12:19:41;;;;;;;0.98;0.20;;;14.40;48.90;;;;;;5059102;28;20187;-73
2021/12/25 12:27:40;;;;;;;1.13;0.22;;;14.30;49.00;;;;;;5075595;28;20048;-73
2021/12/25 12:30:34;;;;;;;4.27;0.37;;;14.30;49.10;;;;;;5075894;28;20056;-73
2021/12/25 12:33:11;;;;;;;1.67;0.35;;;14.30;49.10;;;;;;5088099;28;20358;-74
2021/12/25 12:35:42;;;;;;;4.22;0.30;;;14.30;49.10;;;;;;5095711;28;20064;-73
2021/12/25 12:38:42;;;;;;;1.48;0.20;;;14.20;49.10;;;;;;5095423;28;20055;-73
2021/12/25 12:41:28;;;;;;;1.40;0.30;;;14.20;49.10;;;;;;5095562;28;20048;-75
2021/12/25 12:44:14;;;;;;;1.13;0.10;;;14.20;49.20;;;;;;5095747;28;20048;-73
2021/12/25 12:47:02;;;;;;;1.02;0.28;;;14.20;49.40;;;;;;5093263;28;20052;-73
2021/12/25 12:49:34;;;;;;;6.00;0.57;;;14.20;49.30;;;;;;5095218;28;20047;-76
2021/12/25 12:52:18;;;;;;;6.65;0.60;;;14.20;49.60;;;;;;5095643;28;20048;-77
2021/12/25 12:54:46;;;;;;;12.43;1.48;;;14.20;50.20;;;;;;5095613;28;20043;-75
2021/12/25 12:57:23;;;;;;;9.55;1.27;;;14.20;50.30;;;;;;5095640;28;20048;-77
2021/12/25 12:59:56;;;;;;;11.50;1.48;;;14.20;51.50;;;;;;5061415;28;20152;-73
2021/12/25 13:02:25;;;;;;;15.40;1.40;;;14.20;50.60;;;;;;5095410;28;20325;-73
2021/12/25 13:04:58;;;;;;;13.75;1.35;;;14.30;50.70;;;;;;5095644;28;20054;-73
2021/12/25 13:07:25;;;;;;;17.73;1.65;;;14.30;51.10;;;;;;5094835;28;20080;-75
2021/12/25 13:10:09;;;;;;;28.02;2.13;;;14.30;51.20;;;;;;5095155;28;20116;-72
2021/12/25 13:15:12;;;;;;;14.25;1.55;;;14.40;52.60;;;;;;5095703;28;20070;-87
2021/12/25 13:17:45;;;;;;;12.27;1.10;;;14.40;55.80;;;;;;5088809;28;20056;-75
2021/12/25 13:20:11;;;;;;;14.35;2.20;;;14.40;56.00;;;;;;5075241;28;20087;-73
2021/12/25 13:22:37;;;;;;;20.50;2.35;;;14.40;56.50;;;;;;5073792;28;20091;-74
2021/12/25 13:25:09;;;;;;;16.45;2.88;;;14.60;56.20;;;;;;5076986;28;20463;-75
2021/12/25 13:27:36;;;;;;;21.83;3.50;;;14.80;55.60;;;;;;5088416;28;20044;-74
2021/12/25 13:30:07;;;;;;;17.73;2.53;;;15.00;56.50;;;;;;5094550;28;20135;-73
2021/12/25 13:32:33;;;;;;;12.63;2.50;;;15.10;56.60;;;;;;5075343;28;20106;-73
2021/12/25 13:34:59;;;;;;;12.07;1.85;;;15.30;57.30;;;;;;5074659;28;20044;-73
2021/12/25 13:37:24;;;;;;;17.35;1.50;;;15.40;56.50;;;;;;5074300;28;20055;-72
2021/12/25 13:39:50;;;;;;;11.68;2.33;;;15.40;56.40;;;;;;5089581;28;20067;-73
2021/12/25 13:42:17;;;;;;;17.00;2.42;;;15.50;57.50;;;;;;5065167;28;20054;-74
2021/12/25 13:44:45;;;;;;;14.45;2.30;;;15.50;58.60;;;;;;5074721;28;20371;-73
2021/12/25 13:47:11;;;;;;;9.93;1.63;;;15.50;58.80;;;;;;5074344;28;20056;-73
2021/12/25 13:49:44;;;;;;;10.60;1.70;;;15.50;59.00;;;;;;5094667;28;20040;-73
2021/12/25 13:52:11;;;;;;;12.63;1.83;;;15.50;58.40;;;;;;5094701;28;20043;-74
2021/12/25 13:54:43;;;;;;;9.20;1.60;;;15.50;58.60;;;;;;5095329;28;20051;-72
2021/12/25 13:57:13;;;;;;;6.28;1.20;;;15.50;58.20;;;;;;5095273;28;20383;-73
2021/12/25 13:59:39;;;;;;;10.02;1.60;;;15.50;58.00;;;;;;5095025;28;20131;-74
2021/12/25 14:02:09;;;;;;;9.02;1.40;;;15.40;58.30;;;;;;5085929;28;20047;-73
2021/12/25 14:04:39;;;;;;;5.15;1.25;;;15.40;58.40;;;;;;5057152;28;20044;-73
2021/12/25 14:07:05;;;;;;;5.35;0.98;;;15.40;56.90;;;;;;5057721;28;20120;-74
2021/12/25 14:09:32;;;;;;;4.40;0.77;;;15.40;55.20;;;;;;5070462;28;20040;-77
2021/12/25 14:11:59;;;;;;;4.53;0.80;;;15.30;54.60;;;;;;5073845;28;20123;-77
2021/12/25 14:14:27;;;;;;;2.80;0.57;;;15.30;54.20;;;;;;5074465;28;20439;-74
2021/12/25 14:16:54;;;;;;;5.10;1.00;;;15.20;53.80;;;;;;5074237;28;20125;-75
2021/12/25 14:19:25;;;;;;;8.68;1.15;;;15.20;53.40;;;;;;5077053;28;20040;-73
2021/12/25 14:21:52;;;;;;;7.15;1.02;;;15.20;53.30;;;;;;5085136;28;20052;-76
2021/12/25 14:24:18;;;;;;;6.93;0.73;;;15.20;53.00;;;;;;5098375;28;20343;-74